Time;durP1;ratioP1;P1;durP2;ratioP2;P2;SDS_P1;SDS_P2;PMS_P1;PMS_P2;Temp;Humidity;BMP_temperature;BMP_pressure;BME280_temperature;BME280_humidity;BME280_pressure;Samples;Min_cycle;Max_cycle;Signal;HPM_P1;HPM_P2
2023/03/28 00:02:21;;;;;;;3.87;0.83;;;3.00;99.90;;;;;;4972178;28;20218;-76
2023/03/28 00:04:48;;;;;;;3.50;1.27;;;3.00;99.90;;;;;;4970377;28;20317;-77
2023/03/28 00:07:14;;;;;;;4.23;0.83;;;3.00;99.90;;;;;;4971360;28;20216;-78
2023/03/28 00:09:40;;;;;;;2.53;0.90;;;3.10;99.90;;;;;;4971260;28;20290;-77
2023/03/28 00:12:05;;;;;;;2.40;0.73;;;3.10;99.90;;;;;;4971973;28;20206;-78
2023/03/28 00:14:34;;;;;;;3.93;1.00;;;3.20;99.90;;;;;;4969003;28;20210;-76
2023/03/28 00:17:00;;;;;;;1.33;0.60;;;3.10;99.90;;;;;;4969082;28;20209;-76
2023/03/28 00:19:31;;;;;;;1.90;0.53;;;2.90;99.90;;;;;;4972178;28;20267;-77
2023/03/28 00:21:58;;;;;;;1.50;0.60;;;2.80;99.90;;;;;;4969667;28;20517;-77
2023/03/28 00:24:24;;;;;;;0.83;0.73;;;2.70;99.90;;;;;;4966349;28;20265;-77
2023/03/28 00:26:54;;;;;;;3.37;0.70;;;2.70;99.90;;;;;;4985472;28;20733;-77
2023/03/28 00:29:21;;;;;;;2.57;1.30;;;2.80;99.90;;;;;;4969713;28;20242;-75
2023/03/28 00:31:48;;;;;;;5.07;0.93;;;2.60;99.90;;;;;;4971773;28;20212;-77
2023/03/28 00:34:16;;;;;;;3.33;0.93;;;2.60;99.90;;;;;;4971810;28;20252;-76
2023/03/28 00:36:42;;;;;;;5.50;1.10;;;2.60;99.90;;;;;;4971509;28;20214;-75
2023/03/28 00:39:09;;;;;;;2.93;1.37;;;2.70;99.90;;;;;;4970943;28;20202;-76
2023/03/28 00:41:41;;;;;;;3.40;0.97;;;2.60;99.90;;;;;;4971310;28;20222;-76
2023/03/28 00:44:42;;;;;;;4.70;1.10;;;2.60;99.90;;;;;;4971061;28;20211;-75
2023/03/28 00:47:26;;;;;;;4.00;0.90;;;2.50;99.90;;;;;;4969645;28;20221;-74
2023/03/28 00:50:31;;;;;;;1.67;0.60;;;2.50;99.90;;;;;;4964107;28;20244;-76
2023/03/28 00:53:03;;;;;;;3.43;0.90;;;2.50;99.90;;;;;;4964519;28;20218;-76
2023/03/28 00:55:43;;;;;;;1.90;0.80;;;2.50;99.90;;;;;;4953641;28;20637;-76
2023/03/28 00:58:12;;;;;;;4.23;1.07;;;2.50;99.90;;;;;;4952966;28;20196;-76
2023/03/28 01:00:45;;;;;;;4.17;1.30;;;2.50;99.90;;;;;;4949239;28;20207;-76
2023/03/28 01:03:12;;;;;;;1.33;0.70;;;2.40;99.90;;;;;;4948021;28;20207;-78
2023/03/28 01:05:38;;;;;;;3.00;0.80;;;2.40;99.90;;;;;;4951995;28;20211;-75
2023/03/28 01:08:22;;;;;;;5.60;1.10;;;2.30;99.90;;;;;;4957388;28;20214;-77
2023/03/28 01:10:48;;;;;;;3.67;0.90;;;2.40;99.90;;;;;;4971191;28;20285;-75
2023/03/28 01:13:18;;;;;;;4.93;0.80;;;2.40;99.90;;;;;;4971407;28;20217;-76
2023/03/28 01:15:44;;;;;;;5.67;1.00;;;2.40;99.90;;;;;;4970849;28;20333;-75
2023/03/28 01:18:10;;;;;;;7.23;1.80;;;2.40;99.90;;;;;;4970908;28;20209;-75
2023/03/28 01:20:45;;;;;;;4.63;0.90;;;2.30;99.90;;;;;;4970875;28;20262;-74
2023/03/28 01:23:48;;;;;;;1.90;0.60;;;2.30;99.90;;;;;;4976534;28;20209;-74
2023/03/28 01:26:42;;;;;;;4.83;1.30;;;2.40;99.90;;;;;;4970003;28;20206;-75
2023/03/28 01:29:35;;;;;;;1.80;0.90;;;2.20;99.90;;;;;;4968811;28;20221;-76
2023/03/28 01:32:19;;;;;;;5.43;1.20;;;2.30;99.90;;;;;;4966377;28;20206;-75
2023/03/28 01:35:13;;;;;;;3.30;1.13;;;2.30;99.90;;;;;;4967207;28;20221;-74
2023/03/28 01:37:46;;;;;;;3.57;0.77;;;2.40;99.90;;;;;;4968030;28;20691;-76
2023/03/28 01:40:26;;;;;;;2.40;1.27;;;2.40;99.90;;;;;;4971411;28;20224;-76
2023/03/28 01:42:58;;;;;;;1.43;0.70;;;2.40;99.90;;;;;;4970147;28;20229;-75
2023/03/28 01:45:32;;;;;;;8.13;1.07;;;2.40;99.90;;;;;;4970984;28;20203;-76
2023/03/28 01:48:05;;;;;;;4.00;1.20;;;2.60;99.90;;;;;;4967824;28;20229;-76
2023/03/28 01:50:40;;;;;;;3.83;1.20;;;2.50;99.90;;;;;;4968792;28;20689;-76
2023/03/28 01:53:22;;;;;;;3.47;1.00;;;2.60;99.90;;;;;;4967461;28;20240;-76
2023/03/28 01:56:09;;;;;;;4.37;1.00;;;2.60;99.90;;;;;;4969808;28;20684;-76
2023/03/28 01:58:40;;;;;;;5.70;1.30;;;2.60;99.90;;;;;;4966945;28;20760;-77
2023/03/28 02:01:14;;;;;;;10.20;1.50;;;2.60;99.90;;;;;;4970970;28;20233;-76
2023/03/28 02:03:46;;;;;;;1.70;1.20;;;2.50;99.90;;;;;;4970739;28;20707;-76
2023/03/28 02:06:13;;;;;;;6.10;1.07;;;2.50;99.90;;;;;;4969221;28;20230;-75
2023/03/28 02:08:42;;;;;;;4.27;0.90;;;2.50;99.90;;;;;;4969325;28;20282;-75
2023/03/28 02:11:09;;;;;;;4.93;1.47;;;2.40;99.90;;;;;;4972083;28;20239;-73
2023/03/28 02:13:57;;;;;;;5.87;1.30;;;2.30;99.90;;;;;;4973146;28;20198;-74
2023/03/28 02:16:24;;;;;;;3.17;0.90;;;2.30;99.90;;;;;;4973967;28;20217;-76
2023/03/28 02:18:54;;;;;;;4.07;1.43;;;2.30;99.90;;;;;;4956323;28;20233;-75
2023/03/28 02:21:30;;;;;;;4.27;1.20;;;2.30;99.90;;;;;;4955113;28;20699;-75
2023/03/28 02:23:56;;;;;;;3.43;1.07;;;2.30;99.90;;;;;;4954835;28;20221;-75
2023/03/28 02:26:23;;;;;;;4.73;1.37;;;2.30;99.90;;;;;;4954769;28;20203;-75
2023/03/28 02:28:53;;;;;;;3.40;1.10;;;2.20;99.90;;;;;;4950620;28;20871;-75
2023/03/28 02:31:21;;;;;;;2.20;1.00;;;2.30;99.90;;;;;;4954855;28;20179;-75
2023/03/28 02:33:48;;;;;;;3.00;1.10;;;2.20;99.90;;;;;;4976114;28;20222;-73
2023/03/28 02:36:44;;;;;;;1.67;0.80;;;2.10;99.90;;;;;;4961941;28;20239;-76
2023/03/28 02:39:38;;;;;;;3.83;0.80;;;2.00;99.90;;;;;;4953605;28;20223;-75
2023/03/28 02:42:36;;;;;;;2.13;0.97;;;2.00;99.90;;;;;;4952604;28;20195;-75
2023/03/28 02:45:31;;;;;;;2.63;1.17;;;1.90;99.90;;;;;;4956176;28;20215;-74
2023/03/28 02:48:14;;;;;;;2.57;0.73;;;1.90;99.90;;;;;;4950376;28;20302;-76
2023/03/28 02:50:56;;;;;;;4.00;1.47;;;1.90;99.90;;;;;;4950746;28;20229;-75
2023/03/28 02:53:31;;;;;;;1.40;0.70;;;2.00;99.90;;;;;;4951194;28;20214;-74
2023/03/28 02:56:20;;;;;;;2.30;1.03;;;2.00;99.90;;;;;;4954968;28;20214;-74
2023/03/28 02:58:55;;;;;;;2.17;0.90;;;2.00;99.90;;;;;;4952358;28;20226;-76
2023/03/28 03:01:27;;;;;;;2.67;1.00;;;2.10;99.90;;;;;;4954310;28;20635;-75
2023/03/28 03:03:54;;;;;;;2.30;0.90;;;2.10;99.90;;;;;;4954014;28;20285;-74
2023/03/28 03:06:19;;;;;;;4.30;1.00;;;2.20;99.90;;;;;;4953441;28;20268;-74
2023/03/28 03:08:45;;;;;;;2.60;0.90;;;2.10;99.90;;;;;;4953773;28;20206;-75
2023/03/28 03:11:11;;;;;;;1.90;1.10;;;2.20;99.90;;;;;;4953570;28;20212;-76
2023/03/28 03:13:37;;;;;;;2.60;0.90;;;2.20;99.90;;;;;;4951252;28;20213;-75
2023/03/28 03:16:03;;;;;;;3.17;0.87;;;2.10;99.90;;;;;;4953953;28;20238;-75
2023/03/28 03:18:28;;;;;;;2.90;1.47;;;2.10;99.90;;;;;;4948218;28;20219;-79
2023/03/28 03:20:54;;;;;;;2.87;1.13;;;2.10;99.90;;;;;;4952643;28;20571;-76
2023/03/28 03:23:20;;;;;;;2.37;1.03;;;2.20;99.90;;;;;;4953311;28;20238;-75
2023/03/28 03:25:49;;;;;;;3.37;1.40;;;2.10;99.90;;;;;;4955398;28;20219;-76
2023/03/28 03:28:15;;;;;;;3.93;1.10;;;2.20;99.90;;;;;;4951407;28;20170;-76
2023/03/28 03:30:41;;;;;;;3.27;1.40;;;2.10;99.90;;;;;;4953970;28;20281;-76
2023/03/28 03:33:09;;;;;;;5.60;1.10;;;2.10;99.90;;;;;;4953575;28;20338;-76
2023/03/28 03:35:35;;;;;;;3.13;1.17;;;2.10;99.90;;;;;;4952851;28;20204;-75
2023/03/28 03:38:01;;;;;;;5.00;1.50;;;2.10;99.90;;;;;;4952684;28;20225;-77
2023/03/28 03:40:27;;;;;;;4.97;1.60;;;2.00;99.90;;;;;;4953226;28;20517;-76
2023/03/28 03:42:53;;;;;;;6.30;1.33;;;1.90;99.90;;;;;;4954258;28;20184;-76
2023/03/28 03:45:18;;;;;;;3.50;1.13;;;2.00;99.90;;;;;;4952731;28;20220;-75
2023/03/28 03:47:44;;;;;;;6.80;1.20;;;2.00;99.90;;;;;;4952347;28;20597;-75
2023/03/28 03:50:10;;;;;;;4.03;1.20;;;2.00;99.90;;;;;;4952687;28;20204;-77
2023/03/28 03:52:36;;;;;;;5.83;1.40;;;2.00;99.90;;;;;;4953046;28;20170;-74
2023/03/28 03:55:02;;;;;;;8.30;1.70;;;1.90;99.90;;;;;;4951112;28;20270;-75
2023/03/28 03:57:28;;;;;;;2.60;1.27;;;1.80;99.90;;;;;;4953903;28;20295;-76
2023/03/28 03:59:53;;;;;;;5.90;1.67;;;1.80;99.90;;;;;;4951884;28;20494;-76
2023/03/28 04:02:19;;;;;;;2.80;1.50;;;1.80;99.90;;;;;;4954733;28;20214;-76
2023/03/28 04:04:46;;;;;;;8.50;1.47;;;1.80;99.90;;;;;;4954360;28;20257;-77
2023/03/28 04:07:12;;;;;;;5.53;1.60;;;1.80;99.90;;;;;;4953190;28;20190;-76
2023/03/28 04:09:37;;;;;;;4.10;1.30;;;1.90;99.90;;;;;;4952305;28;20604;-74
2023/03/28 04:12:05;;;;;;;7.30;1.67;;;1.80;99.90;;;;;;4952676;28;20618;-75
2023/03/28 04:14:30;;;;;;;4.03;1.40;;;1.70;99.90;;;;;;4951560;28;20212;-75
2023/03/28 04:16:56;;;;;;;6.00;1.60;;;1.70;99.90;;;;;;4952998;28;20211;-76
2023/03/28 04:19:23;;;;;;;3.47;1.20;;;1.60;99.90;;;;;;4951412;28;20203;-74
2023/03/28 04:21:51;;;;;;;5.73;1.20;;;1.60;99.90;;;;;;4951381;28;20210;-76
2023/03/28 04:24:19;;;;;;;6.53;2.13;;;1.50;99.90;;;;;;4949973;28;20205;-75
2023/03/28 04:26:48;;;;;;;3.13;1.53;;;1.60;99.90;;;;;;4950853;28;20237;-76
2023/03/28 04:29:18;;;;;;;7.37;1.60;;;1.60;99.90;;;;;;4950796;28;20661;-75
2023/03/28 04:31:50;;;;;;;7.27;1.37;;;1.60;99.90;;;;;;4951949;28;20197;-74
2023/03/28 04:34:18;;;;;;;3.87;1.20;;;1.50;99.90;;;;;;4952185;28;20171;-74
2023/03/28 04:36:45;;;;;;;5.30;1.10;;;1.50;99.90;;;;;;4952894;28;20897;-74
2023/03/28 04:39:12;;;;;;;3.37;1.20;;;1.50;99.90;;;;;;4950625;28;20319;-74
2023/03/28 04:41:38;;;;;;;3.17;1.23;;;1.50;99.90;;;;;;4952347;28;20541;-73
2023/03/28 04:44:04;;;;;;;5.10;1.33;;;1.50;99.90;;;;;;4952116;28;20221;-75
2023/03/28 04:46:30;;;;;;;5.83;1.40;;;1.50;99.90;;;;;;4951757;28;20308;-75
2023/03/28 04:48:56;;;;;;;7.23;2.23;;;1.50;99.90;;;;;;4952646;28;20299;-74
2023/03/28 04:51:21;;;;;;;5.37;1.77;;;1.50;99.90;;;;;;4951675;28;20213;-76
2023/03/28 04:53:47;;;;;;;19.53;6.63;;;1.50;99.90;;;;;;4952039;28;20343;-72
2023/03/28 04:56:12;;;;;;;7.00;1.63;;;1.70;99.90;;;;;;4949418;28;20235;-76
2023/03/28 04:58:40;;;;;;;4.93;1.40;;;1.60;99.90;;;;;;4952217;28;20250;-75
2023/03/28 05:01:09;;;;;;;4.20;1.30;;;1.70;99.90;;;;;;4957623;28;20198;-76
2023/03/28 05:03:36;;;;;;;8.00;1.13;;;1.70;99.90;;;;;;4973302;28;20706;-75
2023/03/28 05:06:02;;;;;;;3.77;1.07;;;1.70;99.90;;;;;;4967734;28;20209;-76
2023/03/28 05:08:28;;;;;;;3.63;1.20;;;1.60;99.90;;;;;;4969814;28;20224;-75
2023/03/28 05:10:54;;;;;;;5.60;2.10;;;1.70;99.90;;;;;;4971132;28;20202;-76
2023/03/28 05:13:20;;;;;;;5.20;1.73;;;1.70;99.90;;;;;;4971304;28;20260;-75
2023/03/28 05:15:47;;;;;;;2.40;1.10;;;1.70;99.90;;;;;;4971069;28;20206;-75
2023/03/28 05:18:14;;;;;;;6.87;1.43;;;1.70;99.90;;;;;;4969703;28;20218;-75
2023/03/28 05:20:40;;;;;;;2.40;1.17;;;1.80;99.90;;;;;;4971305;28;20205;-75
2023/03/28 05:23:06;;;;;;;6.27;1.53;;;1.90;99.90;;;;;;4971257;28;20246;-76
2023/03/28 05:25:32;;;;;;;3.60;1.17;;;1.90;99.90;;;;;;4970483;28;20190;-75
2023/03/28 05:27:58;;;;;;;4.20;1.40;;;1.80;99.90;;;;;;4971466;28;20285;-74
2023/03/28 05:30:23;;;;;;;3.13;1.47;;;1.80;99.90;;;;;;4970999;28;20218;-76
2023/03/28 05:32:49;;;;;;;5.37;1.10;;;1.70;99.90;;;;;;4971344;28;20198;-77
2023/03/28 05:35:15;;;;;;;2.00;1.27;;;1.80;99.90;;;;;;4970444;28;20202;-75
2023/03/28 05:37:41;;;;;;;3.57;1.63;;;1.90;99.90;;;;;;4971071;28;20469;-75
2023/03/28 05:40:10;;;;;;;4.73;1.40;;;2.00;99.90;;;;;;4974559;28;20699;-75
2023/03/28 05:42:37;;;;;;;2.33;1.10;;;2.10;99.90;;;;;;4970637;28;20257;-76
2023/03/28 05:45:05;;;;;;;3.37;1.33;;;2.20;99.90;;;;;;4974335;28;20194;-76
2023/03/28 05:47:30;;;;;;;2.47;1.00;;;2.90;99.90;;;;;;4975352;28;20226;-76
2023/03/28 05:49:56;;;;;;;3.63;1.30;;;4.20;99.90;;;;;;4974987;28;20724;-75
2023/03/28 05:52:22;;;;;;;5.43;1.73;;;5.20;99.90;;;;;;4974914;28;20186;-76
2023/03/28 05:54:48;;;;;;;5.60;1.70;;;5.90;99.90;;;;;;4974324;28;20227;-76
2023/03/28 05:57:13;;;;;;;4.83;1.20;;;6.80;99.90;;;;;;4978015;28;20214;-76
2023/03/28 05:59:42;;;;;;;4.53;1.37;;;6.20;99.90;;;;;;4974876;28;20210;-75
2023/03/28 06:02:15;;;;;;;3.30;1.77;;;6.50;99.90;;;;;;4974011;28;20210;-76
2023/03/28 06:04:42;;;;;;;3.80;1.20;;;7.40;99.90;;;;;;4974771;28;20253;-75
2023/03/28 06:07:08;;;;;;;3.77;1.13;;;7.20;99.90;;;;;;4971434;28;20194;-76
2023/03/28 06:09:34;;;;;;;4.40;1.70;;;7.60;99.90;;;;;;4975207;28;20206;-76
2023/03/28 06:12:01;;;;;;;2.30;0.93;;;8.20;99.90;;;;;;4975648;28;20202;-77
2023/03/28 06:14:28;;;;;;;2.45;1.50;;;8.10;99.90;;;;;;4974102;28;20800;-77
2023/03/28 06:16:54;;;;;;;2.10;1.10;;;8.50;99.90;;;;;;4972839;28;20254;-77
2023/03/28 06:19:20;;;;;;;4.05;1.20;;;8.60;99.90;;;;;;4974944;28;20288;-76
2023/03/28 06:21:45;;;;;;;3.03;1.10;;;7.90;99.90;;;;;;4967151;28;20334;-75
2023/03/28 06:24:11;;;;;;;2.67;1.50;;;8.10;99.90;;;;;;4973863;28;20222;-75
2023/03/28 06:26:37;;;;;;;3.50;1.38;;;8.90;99.90;;;;;;4972371;28;20202;-76
2023/03/28 06:29:04;;;;;;;3.35;1.40;;;9.80;99.90;;;;;;4972313;28;20198;-76
2023/03/28 06:31:31;;;;;;;3.05;1.30;;;10.00;99.90;;;;;;4974465;28;20346;-76
2023/03/28 06:33:56;;;;;;;3.53;1.50;;;9.50;99.90;;;;;;4973546;28;20525;-76
2023/03/28 06:36:22;;;;;;;2.90;1.38;;;10.10;99.90;;;;;;4973647;28;20281;-74
2023/03/28 06:38:49;;;;;;;5.90;1.58;;;10.00;99.90;;;;;;4971836;28;20246;-77
2023/03/28 06:41:15;;;;;;;7.20;1.73;;;9.90;99.90;;;;;;4972949;28;20712;-76
2023/03/28 06:43:41;;;;;;;3.55;1.52;;;10.00;99.90;;;;;;4974456;28;20205;-76
2023/03/28 06:46:08;;;;;;;1.63;0.95;;;10.70;99.90;;;;;;4973960;28;20246;-76
2023/03/28 06:48:34;;;;;;;2.03;1.30;;;10.40;99.90;;;;;;4975827;28;20215;-77
2023/03/28 06:51:00;;;;;;;3.80;1.45;;;10.30;99.90;;;;;;4973257;28;20210;-75
2023/03/28 06:53:26;;;;;;;1.70;1.05;;;10.30;99.90;;;;;;4972262;28;20218;-76
2023/03/28 06:55:53;;;;;;;2.78;1.20;;;10.50;99.90;;;;;;4975202;28;20244;-77
2023/03/28 06:58:20;;;;;;;1.80;1.20;;;11.20;99.90;;;;;;4971900;28;20703;-78
2023/03/28 07:00:46;;;;;;;2.53;1.25;;;10.50;99.90;;;;;;4971749;28;20218;-77
2023/03/28 07:03:12;;;;;;;4.07;1.90;;;10.20;99.90;;;;;;4972294;28;20225;-78
2023/03/28 07:05:39;;;;;;;2.85;1.13;;;10.40;99.90;;;;;;4972305;28;20661;-78
2023/03/28 07:08:07;;;;;;;3.13;1.27;;;10.30;99.90;;;;;;4971036;28;20210;-78
2023/03/28 07:10:36;;;;;;;3.72;1.30;;;10.40;99.90;;;;;;4968235;28;20186;-76
2023/03/28 07:13:02;;;;;;;2.92;0.88;;;10.70;99.90;;;;;;4970643;28;20194;-77
2023/03/28 07:15:28;;;;;;;3.28;1.70;;;10.90;99.90;;;;;;4967116;28;20198;-77
2023/03/28 07:17:54;;;;;;;2.78;1.33;;;11.40;99.90;;;;;;4972927;28;20228;-78
2023/03/28 07:20:20;;;;;;;2.17;1.30;;;11.80;99.90;;;;;;4965258;28;20214;-78
2023/03/28 07:22:46;;;;;;;2.13;1.20;;;12.10;99.90;;;;;;4971218;28;20214;-78
2023/03/28 07:25:11;;;;;;;3.20;1.48;;;12.00;99.90;;;;;;4969731;28;20687;-77
2023/03/28 07:27:37;;;;;;;2.67;1.30;;;11.70;99.90;;;;;;4971643;28;20264;-76
2023/03/28 07:30:04;;;;;;;2.67;1.40;;;13.50;99.90;;;;;;4970794;28;20210;-75
2023/03/28 07:32:30;;;;;;;3.15;1.40;;;12.60;99.90;;;;;;4970602;28;20221;-77
2023/03/28 07:34:55;;;;;;;2.20;1.23;;;11.50;99.90;;;;;;4968766;28;20218;-77
2023/03/28 07:37:21;;;;;;;4.85;1.50;;;11.80;99.90;;;;;;4970820;28;20294;-74
2023/03/28 07:39:47;;;;;;;2.42;1.55;;;12.00;99.90;;;;;;4971750;28;20654;-77
2023/03/28 07:42:13;;;;;;;2.33;1.15;;;12.20;99.90;;;;;;4971852;28;20719;-76
2023/03/28 07:44:39;;;;;;;2.25;0.90;;;13.10;99.90;;;;;;4969523;28;20222;-76
2023/03/28 07:47:05;;;;;;;11.93;8.35;;;13.40;99.90;;;;;;4969209;28;20209;-77
2023/03/28 07:49:32;;;;;;;1.60;0.93;;;13.50;99.90;;;;;;4968443;28;20229;-79
2023/03/28 07:51:58;;;;;;;4.00;1.10;;;13.50;99.90;;;;;;4970735;28;20190;-76
2023/03/28 07:54:25;;;;;;;2.92;1.15;;;14.10;99.90;;;;;;4970584;28;20272;-77
2023/03/28 07:56:51;;;;;;;4.35;1.52;;;14.20;99.90;;;;;;4969801;28;20218;-77
2023/03/28 07:59:16;;;;;;;2.72;1.30;;;13.80;99.90;;;;;;4966828;28;20215;-75
2023/03/28 08:01:44;;;;;;;1.77;0.95;;;11.90;99.90;;;;;;4972429;28;20209;-77
2023/03/28 08:04:11;;;;;;;5.85;2.47;;;11.40;99.90;;;;;;4971731;28;20684;-77
2023/03/28 08:06:37;;;;;;;3.08;2.38;;;11.00;99.90;;;;;;4969429;28;20214;-76
2023/03/28 08:09:08;;;;;;;4.32;1.40;;;10.60;99.90;;;;;;4969048;28;20560;-75
2023/03/28 08:11:35;;;;;;;2.15;1.00;;;10.00;99.90;;;;;;4965890;28;20214;-74
2023/03/28 08:14:09;;;;;;;1.58;0.90;;;9.90;99.90;;;;;;4971178;28;20218;-75
2023/03/28 08:16:42;;;;;;;3.92;1.13;;;10.20;99.90;;;;;;4959045;28;20206;-78
2023/03/28 08:19:07;;;;;;;2.00;1.05;;;9.60;99.90;;;;;;4970210;28;20217;-77
2023/03/28 08:21:34;;;;;;;2.35;1.13;;;9.40;99.90;;;;;;4970567;28;20608;-76
2023/03/28 08:24:01;;;;;;;2.22;1.10;;;9.30;99.90;;;;;;4970305;28;20218;-75
2023/03/28 08:26:27;;;;;;;7.05;1.98;;;9.40;99.90;;;;;;4968126;28;20202;-77
2023/03/28 08:28:54;;;;;;;2.25;0.98;;;9.40;99.90;;;;;;4968870;28;20206;-76
2023/03/28 08:31:22;;;;;;;5.40;2.42;;;9.40;99.90;;;;;;4970449;28;20178;-78
2023/03/28 08:33:52;;;;;;;1.73;0.73;;;9.80;99.90;;;;;;4971719;28;20696;-77
2023/03/28 08:36:19;;;;;;;4.65;1.30;;;9.50;99.90;;;;;;4971340;28;20220;-77
2023/03/28 08:38:48;;;;;;;2.53;0.93;;;9.60;99.90;;;;;;4970770;28;20229;-75
2023/03/28 08:41:26;;;;;;;1.67;0.95;;;9.30;99.90;;;;;;4971374;28;20222;-79
2023/03/28 08:44:01;;;;;;;3.22;1.10;;;9.10;99.90;;;;;;4970490;28;20213;-77
2023/03/28 08:46:28;;;;;;;1.55;0.88;;;8.50;99.90;;;;;;4965220;28;20293;-77
2023/03/28 08:48:54;;;;;;;1.70;0.67;;;8.80;99.90;;;;;;4971461;28;20234;-78
2023/03/28 08:51:31;;;;;;;1.73;1.20;;;8.60;99.90;;;;;;4969993;28;20210;-76
2023/03/28 08:54:18;;;;;;;2.70;1.10;;;8.60;99.90;;;;;;4970689;28;20220;-77
2023/03/28 08:56:52;;;;;;;3.57;1.27;;;8.80;99.90;;;;;;4949128;28;20205;-80
2023/03/28 08:59:39;;;;;;;2.40;0.97;;;8.80;99.90;;;;;;4959074;28;20571;-78
2023/03/28 09:02:26;;;;;;;1.53;1.00;;;8.70;99.90;;;;;;4970500;28;20712;-79
2023/03/28 09:04:53;;;;;;;1.43;0.83;;;8.50;99.90;;;;;;4966523;28;20237;-79
2023/03/28 09:07:35;;;;;;;3.67;1.80;;;8.80;99.90;;;;;;4972750;28;20252;-77
2023/03/28 09:10:23;;;;;;;3.97;2.70;;;8.20;99.90;;;;;;4955005;28;20776;-77
2023/03/28 09:13:26;;;;;;;3.87;1.13;;;7.70;99.90;;;;;;4957249;28;20550;-77
2023/03/28 09:16:09;;;;;;;3.50;1.10;;;7.50;99.90;;;;;;4973842;28;20208;-78
2023/03/28 09:19:15;;;;;;;3.50;1.00;;;7.50;99.90;;;;;;4952321;28;20219;-77
2023/03/28 09:21:59;;;;;;;2.80;1.40;;;7.50;99.90;;;;;;4954233;28;20198;-77
2023/03/28 09:24:27;;;;;;;2.93;0.80;;;7.70;99.90;;;;;;4970227;28;20229;-76
2023/03/28 09:27:13;;;;;;;2.53;0.83;;;7.30;99.90;;;;;;4968152;28;20224;-78
2023/03/28 09:29:42;;;;;;;3.87;0.60;;;7.30;99.90;;;;;;4971745;28;20210;-78
2023/03/28 09:32:32;;;;;;;2.60;0.80;;;6.90;99.90;;;;;;4972247;28;20209;-78
2023/03/28 09:34:59;;;;;;;2.20;0.97;;;7.20;99.90;;;;;;4962644;28;20232;-78
2023/03/28 09:37:34;;;;;;;1.20;0.70;;;7.50;99.90;;;;;;4973047;28;20201;-78
2023/03/28 09:40:14;;;;;;;1.80;0.63;;;7.50;99.90;;;;;;4972598;28;20177;-78
2023/03/28 09:42:48;;;;;;;1.00;0.73;;;7.20;99.90;;;;;;4971633;28;20229;-78
2023/03/28 09:45:34;;;;;;;2.27;1.20;;;7.20;99.90;;;;;;4974869;28;20564;-78
2023/03/28 09:48:00;;;;;;;2.00;0.90;;;7.40;99.90;;;;;;4968671;28;20256;-79
2023/03/28 09:50:26;;;;;;;1.33;0.67;;;7.00;99.90;;;;;;4961678;28;20700;-76
2023/03/28 09:52:54;;;;;;;2.63;0.97;;;6.60;99.90;;;;;;4972759;28;20293;-78
2023/03/28 09:55:26;;;;;;;1.33;0.80;;;7.20;99.90;;;;;;4973939;28;20187;-79
2023/03/28 09:58:08;;;;;;;1.70;1.00;;;7.40;99.90;;;;;;4972963;28;20225;-78
2023/03/28 10:00:36;;;;;;;1.53;0.77;;;7.80;99.90;;;;;;4969480;28;20226;-75
2023/03/28 10:03:03;;;;;;;1.53;0.80;;;8.20;99.90;;;;;;4971039;28;20228;-77
2023/03/28 10:05:30;;;;;;;5.03;0.77;;;8.30;99.90;;;;;;4969039;28;20555;-76
2023/03/28 10:07:57;;;;;;;2.03;1.20;;;7.80;99.90;;;;;;4970687;28;20654;-78
2023/03/28 10:10:23;;;;;;;1.67;0.93;;;7.80;99.90;;;;;;4973077;28;20182;-79
2023/03/28 10:12:56;;;;;;;1.30;0.70;;;7.80;99.90;;;;;;4969879;28;20345;-79
2023/03/28 10:15:44;;;;;;;1.27;0.73;;;7.70;99.90;;;;;;4966859;28;20217;-79
2023/03/28 10:18:16;;;;;;;2.40;0.60;;;7.20;99.90;;;;;;4975896;28;20253;-79
2023/03/28 10:20:42;;;;;;;7.20;1.70;;;7.40;99.90;;;;;;4973388;28;20198;-79
2023/03/28 10:23:11;;;;;;;1.90;0.80;;;7.90;99.90;;;;;;4973524;28;20284;-79
2023/03/28 10:25:41;;;;;;;1.30;0.70;;;8.00;99.90;;;;;;4972843;28;20262;-77
2023/03/28 10:28:13;;;;;;;2.53;0.60;;;7.90;99.90;;;;;;4972209;28;20170;-79
2023/03/28 10:30:39;;;;;;;3.53;1.27;;;7.90;99.90;;;;;;4971676;28;20261;-75
2023/03/28 10:33:45;;;;;;;1.27;0.70;;;8.30;99.90;;;;;;4969393;28;20206;-79
2023/03/28 10:36:24;;;;;;;1.90;0.63;;;8.70;99.90;;;;;;4971453;28;20615;-80
2023/03/28 10:38:50;;;;;;;3.33;1.00;;;8.70;99.90;;;;;;4977593;28;20198;-77
2023/03/28 10:41:29;;;;;;;2.03;0.90;;;9.10;99.90;;;;;;4976980;28;20202;-81
2023/03/28 10:43:56;;;;;;;2.87;0.80;;;9.50;99.90;;;;;;4980121;28;20209;-81
2023/03/28 10:46:30;;;;;;;3.40;1.00;;;9.20;99.90;;;;;;4977997;28;20309;-80
2023/03/28 10:49:12;;;;;;;4.00;1.17;;;9.00;99.90;;;;;;4974032;28;20212;-79
2023/03/28 10:51:40;;;;;;;4.57;0.83;;;8.80;99.90;;;;;;4980160;28;20269;-80
2023/03/28 10:54:32;;;;;;;1.33;0.90;;;8.80;99.90;;;;;;4979833;28;20223;-80
2023/03/28 10:57:27;;;;;;;5.13;1.37;;;9.10;99.90;;;;;;4973821;28;20634;-80
2023/03/28 11:00:09;;;;;;;3.40;0.80;;;9.20;99.90;;;;;;4976823;28;20233;-75
2023/03/28 11:02:47;;;;;;;1.33;0.87;;;8.70;99.90;;;;;;4975584;28;20268;-80
2023/03/28 11:05:27;;;;;;;1.20;0.90;;;8.90;99.90;;;;;;4976409;28;20202;-79
2023/03/28 11:08:12;;;;;;;2.27;0.63;;;9.40;99.90;;;;;;4977355;28;20608;-79
2023/03/28 11:10:48;;;;;;;2.47;1.10;;;9.20;99.90;;;;;;4979389;28;20193;-77
2023/03/28 11:13:19;;;;;;;4.70;0.67;;;9.30;99.90;;;;;;4969872;28;20171;-80
2023/03/28 11:15:52;;;;;;;2.57;0.80;;;9.20;99.90;;;;;;4977273;28;20622;-80
2023/03/28 11:18:30;;;;;;;1.20;0.60;;;9.20;99.90;;;;;;4978799;28;20553;-80
2023/03/28 11:20:59;;;;;;;2.77;0.67;;;8.50;99.90;;;;;;4979133;28;20210;-80
2023/03/28 11:23:32;;;;;;;1.20;0.90;;;8.90;99.90;;;;;;4980147;28;20198;-78
2023/03/28 11:26:12;;;;;;;2.03;0.90;;;8.70;99.90;;;;;;4978679;28;20206;-78
2023/03/28 11:28:58;;;;;;;0.83;0.67;;;8.50;99.90;;;;;;4979168;28;20276;-80
2023/03/28 11:31:39;;;;;;;1.73;0.90;;;8.60;99.90;;;;;;4990865;28;20183;-80
2023/03/28 11:34:14;;;;;;;3.00;1.30;;;8.50;99.90;;;;;;4992601;28;20252;-80
2023/03/28 11:37:06;;;;;;;1.80;0.70;;;8.70;99.90;;;;;;4978561;28;20214;-81
2023/03/28 11:39:54;;;;;;;0.90;0.40;;;8.80;99.90;;;;;;4979941;28;20210;-80
2023/03/28 11:42:30;;;;;;;1.33;0.80;;;8.50;99.90;;;;;;4974673;28;20202;-80
2023/03/28 11:45:20;;;;;;;2.30;1.10;;;8.40;99.90;;;;;;4974791;28;20197;-81
2023/03/28 11:48:08;;;;;;;1.53;0.43;;;8.20;99.90;;;;;;4976566;28;20310;-80
2023/03/28 11:51:00;;;;;;;0.97;0.60;;;8.20;99.90;;;;;;4976382;28;20198;-79
2023/03/28 11:53:43;;;;;;;1.47;0.70;;;8.20;99.90;;;;;;4995130;28;20206;-78
2023/03/28 11:56:36;;;;;;;2.07;0.60;;;8.40;99.90;;;;;;4979042;28;20210;-80
2023/03/28 11:59:10;;;;;;;2.60;1.00;;;8.90;99.90;;;;;;4982233;28;20776;-79
2023/03/28 12:01:41;;;;;;;2.97;0.70;;;9.00;99.40;;;;;;4977057;28;20178;-80
2023/03/28 12:04:24;;;;;;;1.23;0.43;;;8.90;99.30;;;;;;4977264;28;20177;-79
2023/03/28 12:07:00;;;;;;;1.43;0.97;;;8.70;98.20;;;;;;4975496;28;20221;-80
2023/03/28 12:09:35;;;;;;;0.70;0.63;;;8.40;99.00;;;;;;4982085;28;20213;-79
2023/03/28 12:12:35;;;;;;;3.10;0.80;;;8.30;99.20;;;;;;4967515;28;20202;-79
2023/03/28 12:15:15;;;;;;;0.83;0.60;;;8.60;99.90;;;;;;4959917;28;20202;-80
2023/03/28 12:17:48;;;;;;;1.03;0.90;;;8.80;98.80;;;;;;4962649;28;20229;-80
2023/03/28 12:20:35;;;;;;;1.13;0.70;;;8.60;98.60;;;;;;4959768;28;20283;-79
2023/03/28 12:23:10;;;;;;;2.07;0.70;;;9.10;99.50;;;;;;4958344;28;20206;-79
2023/03/28 12:26:18;;;;;;;2.83;0.50;;;9.20;98.90;;;;;;4961125;28;20175;-79
2023/03/28 12:28:52;;;;;;;1.63;0.83;;;8.80;99.90;;;;;;4954672;28;20183;-80
2023/03/28 12:31:42;;;;;;;0.90;0.60;;;9.00;99.60;;;;;;4958312;28;20262;-80
2023/03/28 12:34:16;;;;;;;1.00;0.70;;;8.80;99.00;;;;;;4955989;28;20446;-78
2023/03/28 12:36:54;;;;;;;1.70;0.50;;;8.60;98.50;;;;;;4957800;28;20249;-80
2023/03/28 12:39:47;;;;;;;1.60;0.70;;;8.50;98.60;;;;;;4957501;28;20230;-80
2023/03/28 12:42:16;;;;;;;0.70;0.57;;;8.40;99.20;;;;;;4958888;28;20262;-80
2023/03/28 12:44:48;;;;;;;1.03;0.70;;;8.90;99.50;;;;;;4957050;28;20231;-80
2023/03/28 12:47:28;;;;;;;0.60;0.40;;;9.10;99.20;;;;;;4959436;28;20639;-77
2023/03/28 12:50:18;;;;;;;1.90;0.80;;;8.80;97.00;;;;;;4962812;28;20206;-78
2023/03/28 12:52:45;;;;;;;2.30;0.70;;;8.90;98.20;;;;;;4959128;28;22642;-78
2023/03/28 12:55:23;;;;;;;1.13;0.50;;;8.90;97.80;;;;;;4958956;28;20174;-77
2023/03/28 12:57:49;;;;;;;1.17;0.60;;;8.70;97.40;;;;;;4960107;28;20362;-76
2023/03/28 13:00:46;;;;;;;1.13;0.67;;;8.70;98.70;;;;;;4957975;28;20744;-77
2023/03/28 13:03:34;;;;;;;2.10;0.60;;;8.70;98.60;;;;;;4951976;28;20416;-77
2023/03/28 13:06:41;;;;;;;1.33;0.60;;;8.80;99.00;;;;;;4952781;28;20574;-77
2023/03/28 13:09:07;;;;;;;2.80;0.77;;;8.90;98.50;;;;;;4962197;28;20216;-78
2023/03/28 13:11:33;;;;;;;3.20;1.77;;;8.90;98.20;;;;;;4953840;28;20206;-78
2023/03/28 13:14:26;;;;;;;1.37;0.70;;;8.90;99.50;;;;;;4954604;28;20213;-76
2023/03/28 13:17:02;;;;;;;1.70;0.60;;;9.10;98.90;;;;;;4953216;28;20309;-76
2023/03/28 13:19:45;;;;;;;1.23;0.70;;;9.20;98.10;;;;;;4953943;28;20270;-76
2023/03/28 13:22:30;;;;;;;1.33;0.70;;;9.10;97.60;;;;;;4965814;28;20175;-76
2023/03/28 13:25:19;;;;;;;1.77;0.70;;;9.10;97.30;;;;;;4952194;28;20210;-76